sensor_id;sensor_type;location;lat;lon;timestamp;P1;durP1;ratioP1;P2;durP2;ratioP2
7933;SDS011;4012;48.896;9.192;2022-09-28T00:01:54;1.10;;;1.00;;
7933;SDS011;4012;48.896;9.192;2022-09-28T00:04:20;1.30;;;1.00;;
7933;SDS011;4012;48.896;9.192;2022-09-28T00:06:45;1.10;;;1.10;;
7933;SDS011;4012;48.896;9.192;2022-09-28T00:09:11;0.83;;;0.83;;
7933;SDS011;4012;48.896;9.192;2022-09-28T00:11:37;0.97;;;0.97;;
7933;SDS011;4012;48.896;9.192;2022-09-28T00:14:04;0.70;;;0.70;;
7933;SDS011;4012;48.896;9.192;2022-09-28T00:16:35;0.83;;;0.83;;
7933;SDS011;4012;48.896;9.192;2022-09-28T00:19:04;1.50;;;0.73;;
7933;SDS011;4012;48.896;9.192;2022-09-28T00:21:31;1.00;;;1.00;;
7933;SDS011;4012;48.896;9.192;2022-09-28T00:23:59;2.03;;;1.13;;
7933;SDS011;4012;48.896;9.192;2022-09-28T00:29:28;1.73;;;1.00;;
7933;SDS011;4012;48.896;9.192;2022-09-28T00:31:59;1.10;;;0.90;;
7933;SDS011;4012;48.896;9.192;2022-09-28T00:34:34;1.10;;;0.97;;
7933;SDS011;4012;48.896;9.192;2022-09-28T00:37:02;0.93;;;0.80;;
7933;SDS011;4012;48.896;9.192;2022-09-28T00:39:29;0.67;;;0.67;;
7933;SDS011;4012;48.896;9.192;2022-09-28T00:41:59;1.50;;;1.00;;
7933;SDS011;4012;48.896;9.192;2022-09-28T00:52:36;0.83;;;0.83;;
7933;SDS011;4012;48.896;9.192;2022-09-28T00:55:07;0.87;;;0.87;;
7933;SDS011;4012;48.896;9.192;2022-09-28T00:57:36;1.17;;;0.80;;
7933;SDS011;4012;48.896;9.192;2022-09-28T01:00:06;0.80;;;0.80;;
7933;SDS011;4012;48.896;9.192;2022-09-28T01:02:32;0.70;;;0.70;;
7933;SDS011;4012;48.896;9.192;2022-09-28T01:04:57;2.53;;;1.07;;
7933;SDS011;4012;48.896;9.192;2022-09-28T01:07:24;0.80;;;0.80;;
7933;SDS011;4012;48.896;9.192;2022-09-28T01:09:50;0.97;;;0.90;;
7933;SDS011;4012;48.896;9.192;2022-09-28T01:12:17;1.33;;;0.97;;
7933;SDS011;4012;48.896;9.192;2022-09-28T01:14:43;0.90;;;0.90;;
7933;SDS011;4012;48.896;9.192;2022-09-28T01:17:13;1.20;;;1.10;;
7933;SDS011;4012;48.896;9.192;2022-09-28T01:19:53;0.90;;;0.90;;
7933;SDS011;4012;48.896;9.192;2022-09-28T01:22:26;0.97;;;0.80;;
7933;SDS011;4012;48.896;9.192;2022-09-28T01:25:09;2.47;;;1.03;;
7933;SDS011;4012;48.896;9.192;2022-09-28T01:27:41;1.37;;;0.90;;
7933;SDS011;4012;48.896;9.192;2022-09-28T01:30:12;1.10;;;0.93;;
7933;SDS011;4012;48.896;9.192;2022-09-28T01:35:36;0.80;;;0.80;;
7933;SDS011;4012;48.896;9.192;2022-09-28T01:41:17;1.00;;;0.93;;
7933;SDS011;4012;48.896;9.192;2022-09-28T01:43:45;1.60;;;1.20;;
7933;SDS011;4012;48.896;9.192;2022-09-28T01:46:17;2.33;;;1.00;;
7933;SDS011;4012;48.896;9.192;2022-09-28T01:48:47;0.70;;;0.70;;
7933;SDS011;4012;48.896;9.192;2022-09-28T01:51:37;2.00;;;1.27;;
7933;SDS011;4012;48.896;9.192;2022-09-28T01:54:09;2.93;;;1.10;;
7933;SDS011;4012;48.896;9.192;2022-09-28T01:56:39;0.70;;;0.70;;
7933;SDS011;4012;48.896;9.192;2022-09-28T01:59:18;0.87;;;0.87;;
7933;SDS011;4012;48.896;9.192;2022-09-28T02:01:53;1.00;;;0.90;;
7933;SDS011;4012;48.896;9.192;2022-09-28T02:04:31;0.73;;;0.73;;
7933;SDS011;4012;48.896;9.192;2022-09-28T02:07:01;3.00;;;1.00;;
7933;SDS011;4012;48.896;9.192;2022-09-28T02:09:30;1.27;;;0.80;;
7933;SDS011;4012;48.896;9.192;2022-09-28T02:12:05;0.93;;;0.90;;
7933;SDS011;4012;48.896;9.192;2022-09-28T02:14:37;1.47;;;0.80;;
7933;SDS011;4012;48.896;9.192;2022-09-28T02:17:04;3.00;;;0.80;;
7933;SDS011;4012;48.896;9.192;2022-09-28T02:19:31;3.40;;;1.07;;
7933;SDS011;4012;48.896;9.192;2022-09-28T02:24:38;2.47;;;0.97;;
7933;SDS011;4012;48.896;9.192;2022-09-28T02:27:16;2.50;;;1.00;;
7933;SDS011;4012;48.896;9.192;2022-09-28T02:29:58;2.53;;;0.87;;
7933;SDS011;4012;48.896;9.192;2022-09-28T02:32:25;0.93;;;0.70;;
7933;SDS011;4012;48.896;9.192;2022-09-28T02:34:53;2.57;;;1.07;;
7933;SDS011;4012;48.896;9.192;2022-09-28T02:37:19;1.73;;;0.87;;
7933;SDS011;4012;48.896;9.192;2022-09-28T02:39:45;1.73;;;1.10;;
7933;SDS011;4012;48.896;9.192;2022-09-28T02:44:52;0.93;;;0.90;;
7933;SDS011;4012;48.896;9.192;2022-09-28T02:52:47;1.73;;;0.97;;
7933;SDS011;4012;48.896;9.192;2022-09-28T02:58:37;1.93;;;0.97;;
7933;SDS011;4012;48.896;9.192;2022-09-28T03:01:33;2.10;;;1.20;;
7933;SDS011;4012;48.896;9.192;2022-09-28T03:05:28;2.00;;;1.30;;
7933;SDS011;4012;48.896;9.192;2022-09-28T03:10:21;2.33;;;1.17;;
7933;SDS011;4012;48.896;9.192;2022-09-28T03:13:09;2.43;;;1.20;;
7933;SDS011;4012;48.896;9.192;2022-09-28T03:15:36;2.67;;;1.30;;
7933;SDS011;4012;48.896;9.192;2022-09-28T03:18:02;3.63;;;1.10;;
7933;SDS011;4012;48.896;9.192;2022-09-28T03:20:30;1.37;;;1.00;;
7933;SDS011;4012;48.896;9.192;2022-09-28T03:22:57;3.60;;;1.10;;
7933;SDS011;4012;48.896;9.192;2022-09-28T03:25:23;1.87;;;1.20;;
7933;SDS011;4012;48.896;9.192;2022-09-28T03:27:49;3.23;;;1.47;;
7933;SDS011;4012;48.896;9.192;2022-09-28T03:30:14;3.70;;;1.13;;
7933;SDS011;4012;48.896;9.192;2022-09-28T03:32:40;2.93;;;1.03;;
7933;SDS011;4012;48.896;9.192;2022-09-28T03:35:06;2.80;;;1.23;;
7933;SDS011;4012;48.896;9.192;2022-09-28T03:37:33;1.60;;;1.17;;
7933;SDS011;4012;48.896;9.192;2022-09-28T03:39:58;0.73;;;0.60;;
7933;SDS011;4012;48.896;9.192;2022-09-28T03:42:24;1.07;;;0.83;;
7933;SDS011;4012;48.896;9.192;2022-09-28T03:44:50;0.70;;;0.70;;
7933;SDS011;4012;48.896;9.192;2022-09-28T03:47:15;0.70;;;0.70;;
7933;SDS011;4012;48.896;9.192;2022-09-28T03:49:42;1.03;;;0.83;;
7933;SDS011;4012;48.896;9.192;2022-09-28T03:52:08;1.27;;;0.70;;
7933;SDS011;4012;48.896;9.192;2022-09-28T03:54:34;1.07;;;0.70;;
7933;SDS011;4012;48.896;9.192;2022-09-28T03:56:59;0.93;;;0.80;;
7933;SDS011;4012;48.896;9.192;2022-09-28T03:59:25;1.17;;;0.80;;
7933;SDS011;4012;48.896;9.192;2022-09-28T04:01:51;0.77;;;0.77;;
7933;SDS011;4012;48.896;9.192;2022-09-28T04:04:16;2.33;;;0.70;;
7933;SDS011;4012;48.896;9.192;2022-09-28T04:06:42;1.03;;;0.70;;
7933;SDS011;4012;48.896;9.192;2022-09-28T04:09:08;3.40;;;0.90;;
7933;SDS011;4012;48.896;9.192;2022-09-28T04:11:34;2.30;;;0.97;;
7933;SDS011;4012;48.896;9.192;2022-09-28T04:14:00;2.40;;;0.97;;
7933;SDS011;4012;48.896;9.192;2022-09-28T04:16:25;2.50;;;0.70;;
7933;SDS011;4012;48.896;9.192;2022-09-28T04:18:51;1.10;;;0.73;;
7933;SDS011;4012;48.896;9.192;2022-09-28T04:21:17;2.00;;;0.80;;
7933;SDS011;4012;48.896;9.192;2022-09-28T04:23:44;1.60;;;0.87;;
7933;SDS011;4012;48.896;9.192;2022-09-28T04:26:15;3.30;;;0.93;;
7933;SDS011;4012;48.896;9.192;2022-09-28T04:28:46;2.33;;;0.90;;
7933;SDS011;4012;48.896;9.192;2022-09-28T04:34:14;1.20;;;0.80;;
7933;SDS011;4012;48.896;9.192;2022-09-28T04:36:49;2.23;;;1.20;;
7933;SDS011;4012;48.896;9.192;2022-09-28T04:39:15;1.37;;;0.93;;
7933;SDS011;4012;48.896;9.192;2022-09-28T04:41:42;1.30;;;0.70;;
7933;SDS011;4012;48.896;9.192;2022-09-28T04:44:07;2.47;;;1.10;;
7933;SDS011;4012;48.896;9.192;2022-09-28T04:46:33;1.10;;;1.00;;
7933;SDS011;4012;48.896;9.192;2022-09-28T04:48:59;2.20;;;1.10;;
7933;SDS011;4012;48.896;9.192;2022-09-28T04:51:25;0.90;;;0.90;;
7933;SDS011;4012;48.896;9.192;2022-09-28T04:53:50;1.70;;;1.20;;
7933;SDS011;4012;48.896;9.192;2022-09-28T04:56:16;1.73;;;1.03;;
7933;SDS011;4012;48.896;9.192;2022-09-28T04:58:43;0.87;;;0.80;;
7933;SDS011;4012;48.896;9.192;2022-09-28T05:01:13;0.93;;;0.93;;
7933;SDS011;4012;48.896;9.192;2022-09-28T05:03:40;0.87;;;0.87;;
7933;SDS011;4012;48.896;9.192;2022-09-28T05:06:06;1.90;;;1.10;;
7933;SDS011;4012;48.896;9.192;2022-09-28T05:08:33;2.60;;;1.00;;
7933;SDS011;4012;48.896;9.192;2022-09-28T05:11:00;0.70;;;0.70;;
7933;SDS011;4012;48.896;9.192;2022-09-28T05:13:28;1.27;;;0.80;;
7933;SDS011;4012;48.896;9.192;2022-09-28T05:15:55;1.03;;;0.80;;
7933;SDS011;4012;48.896;9.192;2022-09-28T05:18:21;1.07;;;0.90;;
7933;SDS011;4012;48.896;9.192;2022-09-28T05:20:47;2.33;;;0.93;;
7933;SDS011;4012;48.896;9.192;2022-09-28T05:23:13;0.80;;;0.80;;
7933;SDS011;4012;48.896;9.192;2022-09-28T05:25:39;2.70;;;1.13;;
7933;SDS011;4012;48.896;9.192;2022-09-28T05:28:06;0.90;;;0.90;;
7933;SDS011;4012;48.896;9.192;2022-09-28T05:30:32;2.13;;;1.00;;
7933;SDS011;4012;48.896;9.192;2022-09-28T05:32:59;1.50;;;0.70;;
7933;SDS011;4012;48.896;9.192;2022-09-28T05:35:24;1.10;;;0.90;;
7933;SDS011;4012;48.896;9.192;2022-09-28T05:37:50;1.20;;;0.80;;
7933;SDS011;4012;48.896;9.192;2022-09-28T05:40:16;1.00;;;0.90;;
7933;SDS011;4012;48.896;9.192;2022-09-28T05:42:42;1.70;;;0.80;;
7933;SDS011;4012;48.896;9.192;2022-09-28T05:45:08;3.93;;;1.10;;
7933;SDS011;4012;48.896;9.192;2022-09-28T05:47:38;1.43;;;0.80;;
7933;SDS011;4012;48.896;9.192;2022-09-28T05:50:06;2.60;;;1.20;;
7933;SDS011;4012;48.896;9.192;2022-09-28T05:52:32;0.80;;;0.73;;
7933;SDS011;4012;48.896;9.192;2022-09-28T05:54:58;0.63;;;0.63;;
7933;SDS011;4012;48.896;9.192;2022-09-28T05:57:24;0.90;;;0.90;;
7933;SDS011;4012;48.896;9.192;2022-09-28T05:59:50;1.53;;;1.00;;
7933;SDS011;4012;48.896;9.192;2022-09-28T06:02:15;1.13;;;1.00;;
7933;SDS011;4012;48.896;9.192;2022-09-28T06:04:41;2.00;;;1.27;;
7933;SDS011;4012;48.896;9.192;2022-09-28T06:07:06;2.50;;;1.20;;
7933;SDS011;4012;48.896;9.192;2022-09-28T06:09:32;1.33;;;1.20;;
7933;SDS011;4012;48.896;9.192;2022-09-28T06:11:58;1.10;;;1.00;;
7933;SDS011;4012;48.896;9.192;2022-09-28T06:14:23;2.03;;;1.23;;
7933;SDS011;4012;48.896;9.192;2022-09-28T06:16:49;1.90;;;1.00;;
7933;SDS011;4012;48.896;9.192;2022-09-28T06:19:15;1.40;;;1.30;;
7933;SDS011;4012;48.896;9.192;2022-09-28T06:21:41;2.57;;;1.20;;
7933;SDS011;4012;48.896;9.192;2022-09-28T06:24:07;2.43;;;1.50;;
7933;SDS011;4012;48.896;9.192;2022-09-28T06:26:32;3.77;;;1.40;;
7933;SDS011;4012;48.896;9.192;2022-09-28T06:28:58;0.90;;;0.90;;
7933;SDS011;4012;48.896;9.192;2022-09-28T06:31:24;1.07;;;0.97;;
7933;SDS011;4012;48.896;9.192;2022-09-28T06:33:51;3.83;;;1.37;;
7933;SDS011;4012;48.896;9.192;2022-09-28T06:36:17;1.40;;;1.20;;
7933;SDS011;4012;48.896;9.192;2022-09-28T06:38:43;2.63;;;1.47;;
7933;SDS011;4012;48.896;9.192;2022-09-28T06:41:10;2.23;;;1.30;;
7933;SDS011;4012;48.896;9.192;2022-09-28T06:43:36;1.43;;;1.33;;
7933;SDS011;4012;48.896;9.192;2022-09-28T06:46:03;1.83;;;1.60;;
7933;SDS011;4012;48.896;9.192;2022-09-28T06:48:30;2.33;;;1.40;;
7933;SDS011;4012;48.896;9.192;2022-09-28T06:50:57;7.33;;;2.17;;
7933;SDS011;4012;48.896;9.192;2022-09-28T06:53:23;2.20;;;1.77;;
7933;SDS011;4012;48.896;9.192;2022-09-28T06:55:49;3.60;;;1.40;;
7933;SDS011;4012;48.896;9.192;2022-09-28T06:58:17;3.20;;;1.70;;
7933;SDS011;4012;48.896;9.192;2022-09-28T07:00:44;13.13;;;2.33;;
7933;SDS011;4012;48.896;9.192;2022-09-28T07:03:12;5.37;;;1.97;;
7933;SDS011;4012;48.896;9.192;2022-09-28T07:05:43;3.20;;;1.97;;
7933;SDS011;4012;48.896;9.192;2022-09-28T07:08:13;2.90;;;1.67;;
7933;SDS011;4012;48.896;9.192;2022-09-28T07:10:43;1.90;;;1.70;;
7933;SDS011;4012;48.896;9.192;2022-09-28T07:13:10;1.47;;;1.37;;
7933;SDS011;4012;48.896;9.192;2022-09-28T07:15:37;2.77;;;1.63;;
7933;SDS011;4012;48.896;9.192;2022-09-28T07:18:04;1.70;;;1.60;;
7933;SDS011;4012;48.896;9.192;2022-09-28T07:20:34;2.00;;;1.40;;
7933;SDS011;4012;48.896;9.192;2022-09-28T07:23:01;3.20;;;2.30;;
7933;SDS011;4012;48.896;9.192;2022-09-28T07:25:28;3.63;;;2.13;;
7933;SDS011;4012;48.896;9.192;2022-09-28T07:27:55;7.47;;;2.63;;
7933;SDS011;4012;48.896;9.192;2022-09-28T07:30:23;2.00;;;1.60;;
7933;SDS011;4012;48.896;9.192;2022-09-28T07:32:51;5.03;;;1.93;;
7933;SDS011;4012;48.896;9.192;2022-09-28T07:35:17;2.00;;;1.80;;
7933;SDS011;4012;48.896;9.192;2022-09-28T07:37:43;2.60;;;1.70;;
7933;SDS011;4012;48.896;9.192;2022-09-28T07:40:09;2.07;;;1.73;;
7933;SDS011;4012;48.896;9.192;2022-09-28T07:42:55;2.83;;;2.07;;
7933;SDS011;4012;48.896;9.192;2022-09-28T07:45:20;3.93;;;1.67;;
7933;SDS011;4012;48.896;9.192;2022-09-28T07:47:50;4.00;;;1.73;;
7933;SDS011;4012;48.896;9.192;2022-09-28T07:50:19;3.43;;;2.03;;
7933;SDS011;4012;48.896;9.192;2022-09-28T07:52:45;2.50;;;1.40;;
7933;SDS011;4012;48.896;9.192;2022-09-28T07:55:11;3.23;;;1.87;;
7933;SDS011;4012;48.896;9.192;2022-09-28T07:57:37;3.20;;;2.00;;
7933;SDS011;4012;48.896;9.192;2022-09-28T08:00:04;2.03;;;1.70;;
7933;SDS011;4012;48.896;9.192;2022-09-28T08:02:31;4.67;;;1.97;;
7933;SDS011;4012;48.896;9.192;2022-09-28T08:04:59;3.07;;;1.97;;
7933;SDS011;4012;48.896;9.192;2022-09-28T08:07:25;3.47;;;1.70;;
7933;SDS011;4012;48.896;9.192;2022-09-28T08:09:51;2.70;;;1.80;;
7933;SDS011;4012;48.896;9.192;2022-09-28T08:12:17;4.67;;;1.90;;
7933;SDS011;4012;48.896;9.192;2022-09-28T08:14:44;2.93;;;1.47;;
7933;SDS011;4012;48.896;9.192;2022-09-28T08:17:10;3.73;;;2.03;;
7933;SDS011;4012;48.896;9.192;2022-09-28T08:19:35;4.47;;;2.03;;
7933;SDS011;4012;48.896;9.192;2022-09-28T08:22:19;3.10;;;2.20;;
7933;SDS011;4012;48.896;9.192;2022-09-28T08:24:45;3.43;;;1.87;;
7933;SDS011;4012;48.896;9.192;2022-09-28T08:27:12;1.60;;;1.50;;
7933;SDS011;4012;48.896;9.192;2022-09-28T08:29:39;3.70;;;1.90;;
7933;SDS011;4012;48.896;9.192;2022-09-28T08:32:06;2.33;;;1.60;;
7933;SDS011;4012;48.896;9.192;2022-09-28T08:34:35;4.80;;;1.40;;
7933;SDS011;4012;48.896;9.192;2022-09-28T08:37:02;2.23;;;1.50;;
7933;SDS011;4012;48.896;9.192;2022-09-28T08:39:28;2.83;;;1.83;;
7933;SDS011;4012;48.896;9.192;2022-09-28T08:44:42;4.13;;;2.03;;
7933;SDS011;4012;48.896;9.192;2022-09-28T08:47:15;4.27;;;1.57;;
7933;SDS011;4012;48.896;9.192;2022-09-28T08:50:05;3.53;;;1.73;;
7933;SDS011;4012;48.896;9.192;2022-09-28T08:52:38;1.83;;;1.57;;
7933;SDS011;4012;48.896;9.192;2022-09-28T09:00:19;2.27;;;1.70;;
7933;SDS011;4012;48.896;9.192;2022-09-28T09:03:05;4.50;;;2.07;;
7933;SDS011;4012;48.896;9.192;2022-09-28T09:05:49;2.03;;;1.63;;
7933;SDS011;4012;48.896;9.192;2022-09-28T09:16:28;4.83;;;1.80;;
7933;SDS011;4012;48.896;9.192;2022-09-28T09:21:58;4.07;;;1.50;;
7933;SDS011;4012;48.896;9.192;2022-09-28T09:27:12;3.57;;;2.00;;
7933;SDS011;4012;48.896;9.192;2022-09-28T09:29:41;2.77;;;1.80;;
7933;SDS011;4012;48.896;9.192;2022-09-28T09:32:26;3.87;;;1.60;;
7933;SDS011;4012;48.896;9.192;2022-09-28T09:46:31;2.37;;;1.13;;
7933;SDS011;4012;48.896;9.192;2022-09-28T09:51:42;3.13;;;1.90;;
7933;SDS011;4012;48.896;9.192;2022-09-28T09:54:25;3.83;;;1.47;;
7933;SDS011;4012;48.896;9.192;2022-09-28T09:57:14;5.10;;;1.40;;
7933;SDS011;4012;48.896;9.192;2022-09-28T10:00:00;1.43;;;1.20;;
7933;SDS011;4012;48.896;9.192;2022-09-28T10:02:27;4.40;;;1.13;;
7933;SDS011;4012;48.896;9.192;2022-09-28T10:04:58;2.97;;;1.63;;
7933;SDS011;4012;48.896;9.192;2022-09-28T10:07:36;5.13;;;1.77;;
7933;SDS011;4012;48.896;9.192;2022-09-28T10:10:10;7.53;;;1.53;;
7933;SDS011;4012;48.896;9.192;2022-09-28T10:12:39;5.90;;;1.90;;
7933;SDS011;4012;48.896;9.192;2022-09-28T10:15:05;8.03;;;2.13;;
7933;SDS011;4012;48.896;9.192;2022-09-28T10:17:32;2.77;;;1.83;;
7933;SDS011;4012;48.896;9.192;2022-09-28T10:19:58;3.20;;;1.60;;
7933;SDS011;4012;48.896;9.192;2022-09-28T10:22:25;2.63;;;1.77;;
7933;SDS011;4012;48.896;9.192;2022-09-28T10:24:53;4.13;;;1.83;;
7933;SDS011;4012;48.896;9.192;2022-09-28T10:27:28;2.73;;;1.60;;
7933;SDS011;4012;48.896;9.192;2022-09-28T10:32:45;4.63;;;1.50;;
7933;SDS011;4012;48.896;9.192;2022-09-28T10:38:05;3.67;;;1.60;;
7933;SDS011;4012;48.896;9.192;2022-09-28T10:40:41;1.67;;;1.43;;
7933;SDS011;4012;48.896;9.192;2022-09-28T10:46:20;4.30;;;1.77;;
7933;SDS011;4012;48.896;9.192;2022-09-28T10:48:57;4.07;;;1.50;;
7933;SDS011;4012;48.896;9.192;2022-09-28T10:51:40;5.03;;;1.47;;
7933;SDS011;4012;48.896;9.192;2022-09-28T10:54:27;2.33;;;1.30;;
7933;SDS011;4012;48.896;9.192;2022-09-28T10:56:54;2.63;;;1.63;;
7933;SDS011;4012;48.896;9.192;2022-09-28T10:59:42;4.73;;;3.30;;
7933;SDS011;4012;48.896;9.192;2022-09-28T11:05:17;1.87;;;1.20;;
7933;SDS011;4012;48.896;9.192;2022-09-28T11:07:46;2.50;;;1.40;;
7933;SDS011;4012;48.896;9.192;2022-09-28T11:10:22;2.53;;;1.93;;
7933;SDS011;4012;48.896;9.192;2022-09-28T11:12:50;1.60;;;1.30;;
7933;SDS011;4012;48.896;9.192;2022-09-28T11:15:18;2.20;;;1.50;;
7933;SDS011;4012;48.896;9.192;2022-09-28T11:17:46;2.23;;;1.20;;
7933;SDS011;4012;48.896;9.192;2022-09-28T11:20:28;2.53;;;1.50;;
7933;SDS011;4012;48.896;9.192;2022-09-28T11:22:58;2.90;;;1.67;;
7933;SDS011;4012;48.896;9.192;2022-09-28T11:25:38;8.30;;;1.60;;
7933;SDS011;4012;48.896;9.192;2022-09-28T11:28:05;3.73;;;2.40;;
7933;SDS011;4012;48.896;9.192;2022-09-28T11:30:47;3.13;;;1.87;;
7933;SDS011;4012;48.896;9.192;2022-09-28T11:41:38;3.77;;;1.27;;
7933;SDS011;4012;48.896;9.192;2022-09-28T11:46:56;2.30;;;1.40;;
7933;SDS011;4012;48.896;9.192;2022-09-28T11:49:32;2.27;;;1.30;;
7933;SDS011;4012;48.896;9.192;2022-09-28T11:52:15;2.57;;;1.33;;
7933;SDS011;4012;48.896;9.192;2022-09-28T11:55:00;2.17;;;1.53;;
7933;SDS011;4012;48.896;9.192;2022-09-28T11:57:29;2.13;;;1.30;;
7933;SDS011;4012;48.896;9.192;2022-09-28T12:00:01;4.33;;;1.20;;
7933;SDS011;4012;48.896;9.192;2022-09-28T12:02:34;3.43;;;1.30;;
7933;SDS011;4012;48.896;9.192;2022-09-28T12:05:10;2.70;;;1.27;;
7933;SDS011;4012;48.896;9.192;2022-09-28T12:07:50;1.77;;;1.27;;
7933;SDS011;4012;48.896;9.192;2022-09-28T12:13:13;1.53;;;1.30;;
7933;SDS011;4012;48.896;9.192;2022-09-28T12:18:23;3.03;;;1.20;;
7933;SDS011;4012;48.896;9.192;2022-09-28T12:21:06;4.53;;;1.53;;
7933;SDS011;4012;48.896;9.192;2022-09-28T12:23:50;2.37;;;1.50;;
7933;SDS011;4012;48.896;9.192;2022-09-28T12:26:26;2.43;;;1.40;;
7933;SDS011;4012;48.896;9.192;2022-09-28T12:28:55;3.23;;;1.87;;
7933;SDS011;4012;48.896;9.192;2022-09-28T12:31:29;2.17;;;1.30;;
7933;SDS011;4012;48.896;9.192;2022-09-28T12:34:01;5.50;;;1.10;;
7933;SDS011;4012;48.896;9.192;2022-09-28T12:36:43;2.10;;;1.20;;
7933;SDS011;4012;48.896;9.192;2022-09-28T12:39:23;1.90;;;1.23;;
7933;SDS011;4012;48.896;9.192;2022-09-28T12:55:25;1.43;;;1.23;;
7933;SDS011;4012;48.896;9.192;2022-09-28T13:06:30;2.50;;;1.40;;
7933;SDS011;4012;48.896;9.192;2022-09-28T13:19:57;0.97;;;0.90;;
7933;SDS011;4012;48.896;9.192;2022-09-28T13:25:52;2.13;;;1.10;;
7933;SDS011;4012;48.896;9.192;2022-09-28T13:28:23;2.23;;;1.00;;
7933;SDS011;4012;48.896;9.192;2022-09-28T13:30:50;4.00;;;1.10;;
7933;SDS011;4012;48.896;9.192;2022-09-28T13:33:19;3.40;;;1.40;;
7933;SDS011;4012;48.896;9.192;2022-09-28T13:35:53;2.53;;;1.50;;
7933;SDS011;4012;48.896;9.192;2022-09-28T13:41:29;1.77;;;1.40;;
7933;SDS011;4012;48.896;9.192;2022-09-28T14:10:48;1.50;;;1.23;;
7933;SDS011;4012;48.896;9.192;2022-09-28T14:14:22;3.60;;;1.27;;
7933;SDS011;4012;48.896;9.192;2022-09-28T14:16:23;1.47;;;1.23;;
7933;SDS011;4012;48.896;9.192;2022-09-28T14:26:51;2.47;;;1.10;;
7933;SDS011;4012;48.896;9.192;2022-09-28T14:29:38;1.57;;;1.30;;
7933;SDS011;4012;48.896;9.192;2022-09-28T14:34:34;1.20;;;1.07;;
7933;SDS011;4012;48.896;9.192;2022-09-28T14:37:17;4.37;;;0.90;;
7933;SDS011;4012;48.896;9.192;2022-09-28T14:40:14;2.53;;;1.23;;
7933;SDS011;4012;48.896;9.192;2022-09-28T14:43:18;3.23;;;1.00;;
7933;SDS011;4012;48.896;9.192;2022-09-28T14:54:01;1.33;;;1.00;;
7933;SDS011;4012;48.896;9.192;2022-09-28T14:59:24;2.40;;;1.30;;
7933;SDS011;4012;48.896;9.192;2022-09-28T15:02:04;1.37;;;1.13;;
7933;SDS011;4012;48.896;9.192;2022-09-28T15:04:51;2.03;;;1.20;;
7933;SDS011;4012;48.896;9.192;2022-09-28T15:07:29;2.50;;;1.10;;
7933;SDS011;4012;48.896;9.192;2022-09-28T15:12:49;1.63;;;1.40;;
7933;SDS011;4012;48.896;9.192;2022-09-28T15:15:24;2.23;;;1.00;;
7933;SDS011;4012;48.896;9.192;2022-09-28T15:18:04;3.30;;;1.57;;
7933;SDS011;4012;48.896;9.192;2022-09-28T15:20:51;1.87;;;1.33;;
7933;SDS011;4012;48.896;9.192;2022-09-28T15:23:24;2.50;;;1.80;;
7933;SDS011;4012;48.896;9.192;2022-09-28T15:25:54;1.40;;;1.13;;
7933;SDS011;4012;48.896;9.192;2022-09-28T15:28:20;2.60;;;1.27;;
7933;SDS011;4012;48.896;9.192;2022-09-28T15:30:48;1.37;;;1.20;;
7933;SDS011;4012;48.896;9.192;2022-09-28T15:33:24;3.60;;;1.40;;
7933;SDS011;4012;48.896;9.192;2022-09-28T15:36:14;1.20;;;1.00;;
7933;SDS011;4012;48.896;9.192;2022-09-28T15:38:56;2.17;;;1.13;;
7933;SDS011;4012;48.896;9.192;2022-09-28T15:41:27;1.50;;;1.40;;
7933;SDS011;4012;48.896;9.192;2022-09-28T15:44:03;1.23;;;1.13;;
7933;SDS011;4012;48.896;9.192;2022-09-28T15:46:31;2.93;;;1.10;;
7933;SDS011;4012;48.896;9.192;2022-09-28T15:48:59;1.40;;;1.00;;
7933;SDS011;4012;48.896;9.192;2022-09-28T15:51:27;1.03;;;0.77;;
7933;SDS011;4012;48.896;9.192;2022-09-28T15:53:56;1.93;;;1.53;;
7933;SDS011;4012;48.896;9.192;2022-09-28T15:56:25;2.37;;;1.50;;
7933;SDS011;4012;48.896;9.192;2022-09-28T16:01:40;2.23;;;1.30;;
7933;SDS011;4012;48.896;9.192;2022-09-28T16:10:38;1.87;;;1.30;;
7933;SDS011;4012;48.896;9.192;2022-09-28T16:12:45;1.83;;;1.13;;
7933;SDS011;4012;48.896;9.192;2022-09-28T16:15:30;1.93;;;1.13;;
7933;SDS011;4012;48.896;9.192;2022-09-28T16:20:35;3.90;;;2.50;;
7933;SDS011;4012;48.896;9.192;2022-09-28T16:23:16;3.13;;;1.40;;
7933;SDS011;4012;48.896;9.192;2022-09-28T16:28:23;2.90;;;1.80;;
7933;SDS011;4012;48.896;9.192;2022-09-28T16:31:05;1.77;;;1.67;;
7933;SDS011;4012;48.896;9.192;2022-09-28T16:33:44;4.07;;;2.00;;
7933;SDS011;4012;48.896;9.192;2022-09-28T16:36:18;3.17;;;1.37;;
7933;SDS011;4012;48.896;9.192;2022-09-28T16:38:46;2.30;;;1.43;;
7933;SDS011;4012;48.896;9.192;2022-09-28T16:41:13;2.50;;;1.63;;
7933;SDS011;4012;48.896;9.192;2022-09-28T16:43:43;3.57;;;1.47;;
7933;SDS011;4012;48.896;9.192;2022-09-28T16:46:11;3.53;;;1.47;;
7933;SDS011;4012;48.896;9.192;2022-09-28T16:48:40;5.30;;;1.30;;
7933;SDS011;4012;48.896;9.192;2022-09-28T16:51:14;2.03;;;1.30;;
7933;SDS011;4012;48.896;9.192;2022-09-28T16:53:43;4.13;;;1.43;;
7933;SDS011;4012;48.896;9.192;2022-09-28T16:56:28;3.07;;;1.33;;
7933;SDS011;4012;48.896;9.192;2022-09-28T16:58:55;2.57;;;1.93;;
7933;SDS011;4012;48.896;9.192;2022-09-28T17:01:21;3.70;;;1.37;;
7933;SDS011;4012;48.896;9.192;2022-09-28T17:03:48;5.13;;;3.70;;
7933;SDS011;4012;48.896;9.192;2022-09-28T17:06:17;2.43;;;1.87;;
7933;SDS011;4012;48.896;9.192;2022-09-28T17:08:44;2.90;;;1.60;;
7933;SDS011;4012;48.896;9.192;2022-09-28T17:11:14;1.40;;;1.30;;
7933;SDS011;4012;48.896;9.192;2022-09-28T17:13:42;2.00;;;1.30;;
7933;SDS011;4012;48.896;9.192;2022-09-28T17:16:10;3.97;;;2.50;;
7933;SDS011;4012;48.896;9.192;2022-09-28T17:18:39;5.17;;;2.50;;
7933;SDS011;4012;48.896;9.192;2022-09-28T17:21:08;4.80;;;2.53;;
7933;SDS011;4012;48.896;9.192;2022-09-28T17:23:36;6.17;;;2.33;;
7933;SDS011;4012;48.896;9.192;2022-09-28T17:26:03;3.47;;;2.10;;
7933;SDS011;4012;48.896;9.192;2022-09-28T17:28:33;4.37;;;2.03;;
7933;SDS011;4012;48.896;9.192;2022-09-28T17:31:00;5.60;;;1.80;;
7933;SDS011;4012;48.896;9.192;2022-09-28T17:33:26;4.63;;;2.40;;
7933;SDS011;4012;48.896;9.192;2022-09-28T17:35:57;5.33;;;3.07;;
7933;SDS011;4012;48.896;9.192;2022-09-28T17:38:25;4.87;;;3.10;;
7933;SDS011;4012;48.896;9.192;2022-09-28T17:40:50;5.63;;;3.47;;
7933;SDS011;4012;48.896;9.192;2022-09-28T17:43:16;3.70;;;2.30;;
7933;SDS011;4012;48.896;9.192;2022-09-28T17:45:43;4.33;;;2.07;;
7933;SDS011;4012;48.896;9.192;2022-09-28T17:48:15;4.90;;;2.50;;
7933;SDS011;4012;48.896;9.192;2022-09-28T17:50:43;5.60;;;2.50;;
7933;SDS011;4012;48.896;9.192;2022-09-28T17:53:11;3.57;;;2.50;;
7933;SDS011;4012;48.896;9.192;2022-09-28T17:55:37;2.97;;;2.00;;
7933;SDS011;4012;48.896;9.192;2022-09-28T17:58:14;4.50;;;2.23;;
7933;SDS011;4012;48.896;9.192;2022-09-28T18:00:42;3.70;;;2.20;;
7933;SDS011;4012;48.896;9.192;2022-09-28T18:03:16;3.60;;;2.10;;
7933;SDS011;4012;48.896;9.192;2022-09-28T18:05:44;3.67;;;2.13;;
7933;SDS011;4012;48.896;9.192;2022-09-28T18:08:14;2.70;;;2.03;;
7933;SDS011;4012;48.896;9.192;2022-09-28T18:10:41;4.47;;;2.50;;
7933;SDS011;4012;48.896;9.192;2022-09-28T18:13:08;3.57;;;2.10;;
7933;SDS011;4012;48.896;9.192;2022-09-28T18:15:34;3.37;;;2.17;;
7933;SDS011;4012;48.896;9.192;2022-09-28T18:17:59;2.93;;;1.90;;
7933;SDS011;4012;48.896;9.192;2022-09-28T18:20:25;2.97;;;2.10;;
7933;SDS011;4012;48.896;9.192;2022-09-28T18:22:51;3.63;;;2.67;;
7933;SDS011;4012;48.896;9.192;2022-09-28T18:25:16;5.80;;;3.20;;
7933;SDS011;4012;48.896;9.192;2022-09-28T18:27:42;3.27;;;1.90;;
7933;SDS011;4012;48.896;9.192;2022-09-28T18:30:08;5.03;;;2.10;;
7933;SDS011;4012;48.896;9.192;2022-09-28T18:32:34;1.93;;;1.67;;
7933;SDS011;4012;48.896;9.192;2022-09-28T18:35:03;3.83;;;2.13;;
7933;SDS011;4012;48.896;9.192;2022-09-28T18:37:34;3.63;;;2.00;;
7933;SDS011;4012;48.896;9.192;2022-09-28T18:40:04;2.33;;;1.80;;
7933;SDS011;4012;48.896;9.192;2022-09-28T18:42:34;2.37;;;1.80;;
7933;SDS011;4012;48.896;9.192;2022-09-28T18:45:03;4.17;;;1.70;;
7933;SDS011;4012;48.896;9.192;2022-09-28T18:47:31;2.90;;;1.70;;
7933;SDS011;4012;48.896;9.192;2022-09-28T18:49:57;4.43;;;2.00;;
7933;SDS011;4012;48.896;9.192;2022-09-28T18:52:23;5.97;;;1.97;;
7933;SDS011;4012;48.896;9.192;2022-09-28T18:54:50;3.37;;;1.63;;
7933;SDS011;4012;48.896;9.192;2022-09-28T18:57:15;1.77;;;1.50;;
7933;SDS011;4012;48.896;9.192;2022-09-28T18:59:41;3.73;;;1.83;;
7933;SDS011;4012;48.896;9.192;2022-09-28T19:02:08;3.47;;;2.13;;